createdAt,value
2018-07-27T00:02:59.560Z,99529.32
2018-07-27T00:08:04.336Z,99527.17
2018-07-27T00:13:09.222Z,99522.03
2018-07-27T00:18:13.584Z,99518.48
2018-07-27T00:23:18.245Z,99522.35
2018-07-27T00:28:22.921Z,99523.44
2018-07-27T00:33:27.646Z,99527.84
2018-07-27T00:38:32.374Z,99527.86
2018-07-27T00:43:37.211Z,99527.33
2018-07-27T00:48:41.955Z,99525.42
2018-07-27T00:53:46.595Z,99530.33
2018-07-27T00:58:51.412Z,99533.62
2018-07-27T01:03:56.101Z,99529.81
2018-07-27T01:09:00.799Z,99522.18
2018-07-27T01:14:05.720Z,99531.44
2018-07-27T01:19:10.462Z,99522.99
2018-07-27T01:24:15.221Z,99521.63
2018-07-27T01:29:20.152Z,99527.92
2018-07-27T01:34:24.922Z,99525.74
2018-07-27T01:39:29.596Z,99526.56
2018-07-27T01:44:34.251Z,99526.83
2018-07-27T01:49:39.057Z,99523.27
2018-07-27T01:54:43.765Z,99524.36
2018-07-27T01:59:48.488Z,99527.06
2018-07-27T02:04:53.192Z,99525.95
2018-07-27T02:09:57.909Z,99513.13
2018-07-27T02:15:02.594Z,99505.73
2018-07-27T02:20:07.308Z,99508.18
2018-07-27T02:25:11.968Z,99511.41
2018-07-27T02:30:16.960Z,99510.36
2018-07-27T02:35:21.672Z,99511.98
2018-07-27T02:40:26.512Z,99505.17
2018-07-27T02:45:31.365Z,99505.97
2018-07-27T02:50:36.036Z,99503.22
2018-07-27T02:55:40.854Z,99504.02
2018-07-27T03:00:45.770Z,99506.72
2018-07-27T03:05:50.611Z,99508.03
2018-07-27T03:10:55.327Z,99501.83
2018-07-27T03:16:00.119Z,99502.39
2018-07-27T03:21:04.833Z,99502.91
2018-07-27T03:26:09.594Z,99496.92
2018-07-27T03:31:14.287Z,99505.84
2018-07-27T03:36:18.997Z,99499.30
2018-07-27T03:41:23.736Z,99500.62
2018-07-27T03:46:28.626Z,99499.28
2018-07-27T03:51:33.473Z,99500.59
2018-07-27T03:56:38.249Z,99504.13
2018-07-27T04:01:43.044Z,99502.57
2018-07-27T04:06:47.732Z,99490.91
2018-07-27T04:11:52.397Z,99498.31
2018-07-27T04:16:56.754Z,99491.06
2018-07-27T04:22:01.551Z,99492.09
2018-07-27T04:27:06.349Z,99489.27
2018-07-27T04:32:11.163Z,99491.88
2018-07-27T04:37:15.823Z,99499.66
2018-07-27T04:42:20.566Z,99489.39
2018-07-27T04:47:25.361Z,99488.36
2018-07-27T04:52:30.497Z,99493.29
2018-07-27T04:57:35.154Z,99496.81
2018-07-27T05:02:40.113Z,99492.02
2018-07-27T05:07:44.946Z,99494.94
2018-07-27T05:12:49.585Z,99489.65
2018-07-27T05:17:54.314Z,99492.67
2018-07-27T05:22:58.978Z,99489.41
2018-07-27T05:28:03.689Z,99484.59
2018-07-27T05:33:08.419Z,99491.22
2018-07-27T05:38:13.209Z,99493.43
2018-07-27T05:43:18.050Z,99492.05
2018-07-27T05:48:22.787Z,99495.42
2018-07-27T05:53:27.536Z,99503.30
2018-07-27T05:58:32.247Z,99501.71
2018-07-27T06:03:36.894Z,99495.49
2018-07-27T06:08:41.628Z,99498.64
2018-07-27T06:13:46.375Z,99506.05
2018-07-27T06:18:51.098Z,99509.61
2018-07-27T06:23:55.876Z,99506.04
2018-07-27T06:29:00.557Z,99499.40
2018-07-27T06:34:05.227Z,99494.30
2018-07-27T06:39:11.731Z,99502.22
2018-07-27T06:44:16.433Z,99500.52
2018-07-27T06:49:21.196Z,99498.90
2018-07-27T06:54:25.886Z,99497.16
2018-07-27T06:59:30.667Z,99507.34
2018-07-27T07:04:35.349Z,99498.41
2018-07-27T07:09:39.764Z,99501.28
2018-07-27T07:14:44.432Z,99491.98
2018-07-27T07:19:49.097Z,99485.42
2018-07-27T07:24:53.870Z,99487.56
2018-07-27T07:29:58.804Z,99484.50
2018-07-27T07:35:03.533Z,99485.93
2018-07-27T07:40:09.230Z,99479.47
2018-07-27T07:45:13.964Z,99482.97
2018-07-27T07:50:18.725Z,99472.77
2018-07-27T07:55:23.544Z,99470.67
2018-07-27T08:00:28.424Z,99467.27
2018-07-27T08:05:33.164Z,99456.51
2018-07-27T08:10:37.887Z,99453.42
2018-07-27T08:15:42.579Z,99456.45
2018-07-27T08:20:47.383Z,99444.48
2018-07-27T08:27:04.030Z,99437.13
2018-07-27T08:32:09.009Z,99427.14
2018-07-27T08:37:13.961Z,99427.89
2018-07-27T08:42:18.738Z,99433.64
2018-07-27T08:47:23.491Z,99428.98
2018-07-27T08:52:28.096Z,99419.23
2018-07-27T08:57:32.891Z,99421.65
2018-07-27T09:02:37.651Z,99416.78
2018-07-27T09:07:42.372Z,99410.19
2018-07-27T09:12:47.096Z,99400.45
2018-07-27T09:17:51.831Z,99402.91
2018-07-27T09:22:56.609Z,99404.30
2018-07-27T09:28:01.388Z,99402.19
2018-07-27T09:33:06.205Z,99396.29
2018-07-27T09:38:10.933Z,99393.11
2018-07-27T09:43:16.505Z,99384.78
2018-07-27T09:48:21.309Z,99378.94
2018-07-27T09:53:26.377Z,99382.11
2018-07-27T09:58:31.188Z,99373.09
2018-07-27T10:03:35.976Z,99375.42
2018-07-27T10:08:40.684Z,99365.78
2018-07-27T10:13:46.990Z,99359.41
2018-07-27T10:18:51.686Z,99354.91
2018-07-27T10:23:56.629Z,99353.07
2018-07-27T10:29:01.422Z,99355.66
2018-07-27T10:34:06.263Z,99357.53
2018-07-27T10:39:12.156Z,99342.98
2018-07-27T10:44:17.225Z,99345.91
2018-07-27T10:49:22.041Z,99337.31
2018-07-27T10:54:26.872Z,99333.06
2018-07-27T10:59:31.701Z,99330.64
2018-07-27T11:04:37.877Z,99326.56
2018-07-27T11:09:42.685Z,99317.58
2018-07-27T11:14:47.330Z,99317.86
2018-07-27T11:19:52.672Z,99301.95
2018-07-27T11:24:57.479Z,99304.86
2018-07-27T11:30:02.452Z,99302.89
2018-07-27T11:35:07.203Z,99296.27
2018-07-27T11:40:13.292Z,99290.84
2018-07-27T11:45:18.077Z,99285.48
2018-07-27T11:50:22.811Z,99286.57
2018-07-27T11:55:27.534Z,99276.78
2018-07-27T12:00:32.253Z,99273.41
2018-07-27T12:05:36.961Z,99268.67
2018-07-27T12:10:41.668Z,99259.47
2018-07-27T12:15:46.449Z,99257.11
2018-07-27T12:20:51.651Z,99251.04
2018-07-27T12:25:56.160Z,99243.39
2018-07-27T12:31:00.974Z,99236.23
2018-07-27T12:36:06.204Z,99233.88
2018-07-27T12:41:11.062Z,99223.36
2018-07-27T12:46:15.837Z,99214.28
2018-07-27T12:51:20.478Z,99210.45
2018-07-27T12:56:25.194Z,99202.88
2018-07-27T13:01:29.970Z,99201.70
2018-07-27T13:06:34.747Z,99196.03
2018-07-27T13:11:40.518Z,99189.95
2018-07-27T13:16:45.253Z,99193.87
2018-07-27T13:21:50.243Z,99185.17
2018-07-27T13:26:55.091Z,99169.84
2018-07-27T13:32:00.584Z,99167.41
2018-07-27T13:37:05.870Z,99156.75
2018-07-27T13:42:13.084Z,99144.59
2018-07-27T13:47:18.456Z,99136.79
2018-07-27T13:52:23.259Z,99133.77
2018-07-27T13:57:28.013Z,99133.78
2018-07-27T14:02:32.880Z,99127.77
2018-07-27T14:08:37.511Z,99119.38
2018-07-27T14:13:42.272Z,99118.95
2018-07-27T14:18:47.038Z,99118.76
2018-07-27T14:23:51.995Z,99109.86
2018-07-27T14:34:11.742Z,99100.83
2018-07-27T14:39:17.081Z,99085.85
2018-07-27T14:44:21.804Z,99086.72
2018-07-27T14:49:26.602Z,99068.42
2018-07-27T14:54:31.415Z,99065.31
2018-07-27T14:59:36.142Z,99062.61
2018-07-27T15:04:40.931Z,99055.81
2018-07-27T15:09:48.973Z,99051.64
2018-07-27T15:14:53.733Z,99048.91
2018-07-27T15:19:58.645Z,99048.84
2018-07-27T15:25:03.435Z,99041.52
2018-07-27T15:30:08.486Z,99040.28
2018-07-27T15:35:13.301Z,99032.41
2018-07-27T15:40:18.123Z,99027.25
2018-07-27T15:45:22.831Z,99025.27
2018-07-27T15:50:27.536Z,99025.43
2018-07-27T15:55:32.310Z,99018.55
2018-07-27T16:00:37.145Z,99023.97
2018-07-27T16:05:42.131Z,99023.20
2018-07-27T16:10:46.915Z,99027.58
2018-07-27T16:15:51.691Z,99023.27
2018-07-27T16:20:56.490Z,99039.30
2018-07-27T16:26:01.178Z,99037.10
2018-07-27T16:31:06.000Z,99039.60
2018-07-27T16:36:10.789Z,99038.92
2018-07-27T16:41:15.563Z,99045.55
2018-07-27T16:46:20.336Z,99041.69
2018-07-27T16:51:30.720Z,99038.63
2018-07-27T16:56:35.422Z,99042.80
2018-07-27T17:01:40.105Z,99046.31
2018-07-27T17:06:44.833Z,99041.71
2018-07-27T17:11:49.705Z,99046.78
2018-07-27T17:16:54.571Z,99053.11
2018-07-27T17:21:59.368Z,99039.25
2018-07-27T17:27:04.152Z,99049.88
2018-07-27T17:32:09.076Z,99043.03
2018-07-27T17:37:13.882Z,99042.48
2018-07-27T17:42:18.729Z,99044.44
2018-07-27T17:47:23.608Z,99054.27
2018-07-27T17:52:28.065Z,99063.31
2018-07-27T17:57:32.793Z,99071.82
2018-07-27T18:02:37.978Z,99066.02
2018-07-27T18:07:42.892Z,99064.30
2018-07-27T18:12:47.483Z,99070.39
2018-07-27T18:17:52.231Z,99073.45
2018-07-27T18:22:56.996Z,99067.45
2018-07-27T18:28:01.846Z,99084.45
2018-07-27T18:33:07.022Z,99074.74
2018-07-27T18:38:12.065Z,99080.28
2018-07-27T18:43:16.942Z,99079.37
2018-07-27T18:48:21.975Z,99080.83
2018-07-27T18:53:26.745Z,99090.09
2018-07-27T18:58:31.430Z,99085.00
2018-07-27T19:03:36.247Z,99085.93
2018-07-27T19:08:41.354Z,99081.31
2018-07-27T19:13:46.142Z,99096.70
2018-07-27T19:18:51.079Z,99099.16
2018-07-27T19:23:55.889Z,99101.34
2018-07-27T19:29:00.679Z,99101.36
2018-07-27T19:34:05.437Z,99099.64
2018-07-27T19:39:12.139Z,99096.70
2018-07-27T19:44:16.916Z,99100.98
2018-07-27T19:49:21.925Z,99107.49
2018-07-27T19:54:26.775Z,99103.78
2018-07-27T19:59:31.615Z,99104.95
2018-07-27T20:04:36.474Z,99098.33
2018-07-27T20:09:41.347Z,99092.27
2018-07-27T20:14:46.207Z,99105.71
2018-07-27T20:19:50.987Z,99102.34
2018-07-27T20:24:55.972Z,99108.99
2018-07-27T20:30:00.945Z,99111.02
2018-07-27T20:35:05.705Z,99107.09
2018-07-27T20:40:10.660Z,99113.67
2018-07-27T20:45:15.500Z,99113.17
2018-07-27T20:50:20.382Z,99115.56
2018-07-27T20:55:25.169Z,99115.19
2018-07-27T21:00:29.922Z,99115.64
2018-07-27T21:05:34.788Z,99109.42
2018-07-27T21:10:39.595Z,99110.73
2018-07-27T21:15:44.267Z,99107.25
2018-07-27T21:20:49.418Z,99119.89
2018-07-27T21:25:54.259Z,99105.73
2018-07-27T21:30:58.989Z,99107.23
2018-07-27T21:36:03.926Z,99100.20
2018-07-27T21:41:08.734Z,99101.33
2018-07-27T21:46:13.617Z,99103.69
2018-07-27T21:51:19.306Z,99103.93
2018-07-27T21:56:23.995Z,99101.27
2018-07-27T22:01:28.690Z,99101.15
2018-07-27T22:06:33.064Z,99099.13
2018-07-27T22:11:38.132Z,99103.59
2018-07-27T22:16:43.905Z,99102.84
2018-07-27T22:21:49.319Z,99091.44
2018-07-27T22:26:55.457Z,99098.27
2018-07-27T22:32:00.820Z,99083.86
2018-07-27T22:37:06.952Z,99078.88
2018-07-27T22:42:11.814Z,99072.13
2018-07-27T22:47:16.622Z,99075.65
2018-07-27T22:52:21.628Z,99076.50
2018-07-27T22:57:26.697Z,99080.81
2018-07-27T23:02:31.706Z,99081.64
2018-07-27T23:07:36.736Z,99077.00
2018-07-27T23:12:41.525Z,99076.20
2018-07-27T23:17:46.354Z,99071.27
2018-07-27T23:22:51.284Z,99067.97
2018-07-27T23:27:56.054Z,99065.43
2018-07-27T23:33:00.857Z,99076.27
2018-07-27T23:38:05.819Z,99068.66
2018-07-27T23:43:10.625Z,99054.34
2018-07-27T23:48:15.429Z,99054.98
2018-07-27T23:53:20.197Z,99061.68
2018-07-27T23:58:24.886Z,99052.70
